53 rows sorted by value

View and edit SQL

Suggested facets: workout_id, key, value, created_at (date), updated_at (date)

id created_at updated_at deleted_at workout_id key value ▼
434 2021-03-04 17:19:51.195925+03:00 2021-03-04 17:19:51.195925+03:00   101 101 HKIndoorWorkout 0
435 2021-03-04 17:19:51.197+03:00 2021-03-04 17:19:51.197+03:00   102 102 HKIndoorWorkout 0
440 2021-03-04 17:19:51.199206+03:00 2021-03-04 17:19:51.199206+03:00   103 103 HKIndoorWorkout 0
445 2021-03-04 17:19:51.200987+03:00 2021-03-04 17:19:51.200987+03:00   104 104 HKIndoorWorkout 0
449 2021-03-04 17:19:51.202615+03:00 2021-03-04 17:19:51.202615+03:00   105 105 HKIndoorWorkout 0
457 2021-03-04 17:19:51.203755+03:00 2021-03-04 17:19:51.203755+03:00   106 106 HKIndoorWorkout 0
458 2021-03-04 17:19:51.20426+03:00 2021-03-04 17:19:51.20426+03:00   107 107 HKIndoorWorkout 0
462 2021-03-04 17:19:51.206205+03:00 2021-03-04 17:19:51.206205+03:00   108 108 HKIndoorWorkout 0
467 2021-03-04 17:19:51.207907+03:00 2021-03-04 17:19:51.207907+03:00   109 109 HKIndoorWorkout 0
471 2021-03-04 17:19:51.209286+03:00 2021-03-04 17:19:51.209286+03:00   110 110 HKIndoorWorkout 0
475 2021-03-04 17:19:51.211024+03:00 2021-03-04 17:19:51.211024+03:00   111 111 HKIndoorWorkout 0
480 2021-03-04 17:19:51.212423+03:00 2021-03-04 17:19:51.212423+03:00   112 112 HKIndoorWorkout 0
479 2021-03-04 17:19:51.211249+03:00 2021-03-04 17:19:51.211249+03:00   111 111 HKElevationAscended 1029 cm
439 2021-03-04 17:19:51.197203+03:00 2021-03-04 17:19:51.197203+03:00   102 102 HKElevationAscended 200 cm
444 2021-03-04 17:19:51.19941+03:00 2021-03-04 17:19:51.19941+03:00   103 103 HKElevationAscended 204 cm
466 2021-03-04 17:19:51.206431+03:00 2021-03-04 17:19:51.206431+03:00   108 108 HKElevationAscended 3072 cm
481 2021-03-04 17:19:51.212499+03:00 2021-03-04 17:19:51.212499+03:00   112 112 HKWeatherTemperature 31 degF
455 2021-03-04 17:19:51.20365+03:00 2021-03-04 17:19:51.20365+03:00   106 106 HKWeatherTemperature 35 degF
472 2021-03-04 17:19:51.209361+03:00 2021-03-04 17:19:51.209361+03:00   110 110 HKWeatherTemperature 37 degF
463 2021-03-04 17:19:51.206265+03:00 2021-03-04 17:19:51.206265+03:00   108 108 HKWeatherTemperature 42 degF
476 2021-03-04 17:19:51.211087+03:00 2021-03-04 17:19:51.211087+03:00   111 111 HKWeatherTemperature 44 degF
468 2021-03-04 17:19:51.207983+03:00 2021-03-04 17:19:51.207983+03:00   109 109 HKWeatherTemperature 46 degF
459 2021-03-04 17:19:51.204315+03:00 2021-03-04 17:19:51.204315+03:00   107 107 HKWeatherTemperature 47 degF
452 2021-03-04 17:19:51.202779+03:00 2021-03-04 17:19:51.202779+03:00   105 105 HKWeatherHumidity 5000 %
432 2021-03-04 17:19:51.195819+03:00 2021-03-04 17:19:51.195819+03:00   101 101 HKWeatherTemperature 57 degF
436 2021-03-04 17:19:51.197055+03:00 2021-03-04 17:19:51.197055+03:00   102 102 HKWeatherTemperature 61 degF
441 2021-03-04 17:19:51.199261+03:00 2021-03-04 17:19:51.199261+03:00   103 103 HKWeatherTemperature 62 degF
446 2021-03-04 17:19:51.201075+03:00 2021-03-04 17:19:51.201075+03:00   104 104 HKWeatherTemperature 65 degF
450 2021-03-04 17:19:51.202671+03:00 2021-03-04 17:19:51.202671+03:00   105 105 HKWeatherTemperature 72 degF
438 2021-03-04 17:19:51.197155+03:00 2021-03-04 17:19:51.197155+03:00   102 102 HKWeatherHumidity 7200 %
443 2021-03-04 17:19:51.199363+03:00 2021-03-04 17:19:51.199363+03:00   103 103 HKWeatherHumidity 7400 %
448 2021-03-04 17:19:51.20126+03:00 2021-03-04 17:19:51.20126+03:00   104 104 HKWeatherHumidity 8000 %
433 2021-03-04 17:19:51.195874+03:00 2021-03-04 17:19:51.195874+03:00   101 101 HKWeatherHumidity 8100 %
456 2021-03-04 17:19:51.203702+03:00 2021-03-04 17:19:51.203702+03:00   106 106 HKWeatherHumidity 8200 %
483 2021-03-04 17:19:51.212601+03:00 2021-03-04 17:19:51.212601+03:00   112 112 HKWeatherHumidity 8200 %
453 2021-03-04 17:19:51.202826+03:00 2021-03-04 17:19:51.202826+03:00   105 105 HKElevationAscended 8462 cm
470 2021-03-04 17:19:51.208089+03:00 2021-03-04 17:19:51.208089+03:00   109 109 HKWeatherHumidity 8500 %
478 2021-03-04 17:19:51.211196+03:00 2021-03-04 17:19:51.211196+03:00   111 111 HKWeatherHumidity 9000 %
461 2021-03-04 17:19:51.204503+03:00 2021-03-04 17:19:51.204503+03:00   107 107 HKWeatherHumidity 9100 %
474 2021-03-04 17:19:51.209473+03:00 2021-03-04 17:19:51.209473+03:00   110 110 HKWeatherHumidity 9100 %
465 2021-03-04 17:19:51.206368+03:00 2021-03-04 17:19:51.206368+03:00   108 108 HKWeatherHumidity 9200 %
431 2021-03-04 17:19:51.195757+03:00 2021-03-04 17:19:51.195757+03:00   101 101 HKTimeZone Europe/Moscow
437 2021-03-04 17:19:51.197107+03:00 2021-03-04 17:19:51.197107+03:00   102 102 HKTimeZone Europe/Moscow
442 2021-03-04 17:19:51.199312+03:00 2021-03-04 17:19:51.199312+03:00   103 103 HKTimeZone Europe/Moscow
447 2021-03-04 17:19:51.201171+03:00 2021-03-04 17:19:51.201171+03:00   104 104 HKTimeZone Europe/Moscow
451 2021-03-04 17:19:51.202731+03:00 2021-03-04 17:19:51.202731+03:00   105 105 HKTimeZone Europe/Moscow
454 2021-03-04 17:19:51.203594+03:00 2021-03-04 17:19:51.203594+03:00   106 106 HKTimeZone Europe/Moscow
460 2021-03-04 17:19:51.204367+03:00 2021-03-04 17:19:51.204367+03:00   107 107 HKTimeZone Europe/Moscow
464 2021-03-04 17:19:51.206319+03:00 2021-03-04 17:19:51.206319+03:00   108 108 HKTimeZone Europe/Moscow
469 2021-03-04 17:19:51.208035+03:00 2021-03-04 17:19:51.208035+03:00   109 109 HKTimeZone Europe/Moscow
473 2021-03-04 17:19:51.209414+03:00 2021-03-04 17:19:51.209414+03:00   110 110 HKTimeZone Europe/Moscow
477 2021-03-04 17:19:51.211141+03:00 2021-03-04 17:19:51.211141+03:00   111 111 HKTimeZone Europe/Moscow
482 2021-03-04 17:19:51.212551+03:00 2021-03-04 17:19:51.212551+03:00   112 112 HKTimeZone Europe/Moscow

Advanced export

JSON shape: default, array, newline-delimited, object

CSV options:

CREATE TABLE `health_workout_metadata` (`id` integer,`created_at` datetime,`updated_at` datetime,`deleted_at` datetime,`workout_id` integer,`key` text,`value` text,PRIMARY KEY (`id`),CONSTRAINT `fk_health_workouts_metadata_entries` FOREIGN KEY (`workout_id`) REFERENCES `health_workouts`(`id`));
CREATE UNIQUE INDEX `health_workout_metadata_key` ON `health_workout_metadata`(`workout_id`,`key`);
CREATE INDEX `idx_health_workout_metadata_deleted_at` ON `health_workout_metadata`(`deleted_at`);